sensor_id;sensor_type;location;lat;lon;timestamp;pressure;altitude;pressure_sealevel;temperature;humidity
29907;BME280;16776;50.958;10.994;2023-08-01T00:00:26;97209.75;;;15.93;100.00
29907;BME280;16776;50.958;10.994;2023-08-01T00:02:53;97207.97;;;15.93;100.00
29907;BME280;16776;50.958;10.994;2023-08-01T00:05:20;97198.41;;;15.94;100.00
29907;BME280;16776;50.958;10.994;2023-08-01T00:07:47;97190.63;;;15.94;100.00
29907;BME280;16776;50.958;10.994;2023-08-01T00:10:13;97187.19;;;15.93;100.00
29907;BME280;16776;50.958;10.994;2023-08-01T00:12:41;97180.34;;;15.92;100.00
29907;BME280;16776;50.958;10.994;2023-08-01T00:15:10;97180.13;;;15.95;100.00
29907;BME280;16776;50.958;10.994;2023-08-01T00:17:37;97172.78;;;15.89;100.00
29907;BME280;16776;50.958;10.994;2023-08-01T00:20:04;97171.00;;;15.90;100.00
29907;BME280;16776;50.958;10.994;2023-08-01T00:22:31;97164.06;;;15.90;100.00
29907;BME280;16776;50.958;10.994;2023-08-01T00:24:58;97149.41;;;15.89;100.00
29907;BME280;16776;50.958;10.994;2023-08-01T00:27:24;97152.00;;;15.89;100.00
29907;BME280;16776;50.958;10.994;2023-08-01T00:29:51;97149.31;;;15.91;100.00
29907;BME280;16776;50.958;10.994;2023-08-01T00:32:19;97148.25;;;15.93;100.00
29907;BME280;16776;50.958;10.994;2023-08-01T00:34:46;97138.81;;;15.92;100.00
29907;BME280;16776;50.958;10.994;2023-08-01T00:37:13;97138.69;;;15.94;100.00
29907;BME280;16776;50.958;10.994;2023-08-01T00:39:39;97130.91;;;15.94;100.00
29907;BME280;16776;50.958;10.994;2023-08-01T00:42:06;97123.00;;;15.95;100.00
29907;BME280;16776;50.958;10.994;2023-08-01T00:44:33;97121.34;;;15.94;100.00
29907;BME280;16776;50.958;10.994;2023-08-01T00:46:59;97110.03;;;15.95;100.00
29907;BME280;16776;50.958;10.994;2023-08-01T00:49:28;97111.47;;;15.99;100.00
29907;BME280;16776;50.958;10.994;2023-08-01T00:51:54;97097.78;;;15.97;100.00
29907;BME280;16776;50.958;10.994;2023-08-01T00:54:21;97087.38;;;15.97;100.00
29907;BME280;16776;50.958;10.994;2023-08-01T00:56:47;97082.09;;;15.99;100.00
29907;BME280;16776;50.958;10.994;2023-08-01T00:59:15;97085.50;;;15.99;100.00
29907;BME280;16776;50.958;10.994;2023-08-01T01:01:42;97075.81;;;16.01;100.00
29907;BME280;16776;50.958;10.994;2023-08-01T01:04:08;97068.97;;;16.00;100.00
29907;BME280;16776;50.958;10.994;2023-08-01T01:06:41;97062.38;;;16.07;100.00
29907;BME280;16776;50.958;10.994;2023-08-01T01:09:15;97055.66;;;16.05;100.00
29907;BME280;16776;50.958;10.994;2023-08-01T01:11:42;97048.19;;;16.00;100.00
29907;BME280;16776;50.958;10.994;2023-08-01T01:14:08;97042.16;;;16.00;100.00
29907;BME280;16776;50.958;10.994;2023-08-01T01:16:38;97030.97;;;15.99;100.00
29907;BME280;16776;50.958;10.994;2023-08-01T01:19:07;96998.94;;;15.88;100.00
29907;BME280;16776;50.958;10.994;2023-08-01T01:21:37;97016.00;;;16.03;100.00
29907;BME280;16776;50.958;10.994;2023-08-01T01:24:05;97019.78;;;15.99;100.00
29907;BME280;16776;50.958;10.994;2023-08-01T01:26:34;97017.38;;;15.96;100.00
29907;BME280;16776;50.958;10.994;2023-08-01T01:29:02;97014.69;;;15.97;100.00
29907;BME280;16776;50.958;10.994;2023-08-01T01:31:36;97001.09;;;15.94;100.00
29907;BME280;16776;50.958;10.994;2023-08-01T01:34:06;96998.16;;;15.98;100.00
29907;BME280;16776;50.958;10.994;2023-08-01T01:36:32;97002.03;;;15.93;100.00
29907;BME280;16776;50.958;10.994;2023-08-01T01:39:00;96999.31;;;15.94;100.00
29907;BME280;16776;50.958;10.994;2023-08-01T01:41:27;96993.44;;;15.92;100.00
29907;BME280;16776;50.958;10.994;2023-08-01T01:43:53;96981.38;;;15.91;100.00
29907;BME280;16776;50.958;10.994;2023-08-01T01:46:20;96976.19;;;15.91;100.00
29907;BME280;16776;50.958;10.994;2023-08-01T01:48:47;96976.19;;;15.91;100.00
29907;BME280;16776;50.958;10.994;2023-08-01T01:51:13;96979.63;;;15.92;100.00
29907;BME280;16776;50.958;10.994;2023-08-01T01:53:40;96971.94;;;15.90;100.00
29907;BME280;16776;50.958;10.994;2023-08-01T01:56:08;96974.28;;;15.93;100.00
29907;BME280;16776;50.958;10.994;2023-08-01T01:58:34;96958.97;;;15.90;100.00
29907;BME280;16776;50.958;10.994;2023-08-01T02:01:01;96953.75;;;15.90;100.00
29907;BME280;16776;50.958;10.994;2023-08-01T02:03:27;96940.78;;;15.90;100.00
29907;BME280;16776;50.958;10.994;2023-08-01T02:05:54;96934.75;;;15.90;100.00
29907;BME280;16776;50.958;10.994;2023-08-01T02:08:20;96931.34;;;15.89;100.00
29907;BME280;16776;50.958;10.994;2023-08-01T02:10:47;96926.41;;;15.86;100.00
29907;BME280;16776;50.958;10.994;2023-08-01T02:13:15;96908.22;;;15.86;100.00
29907;BME280;16776;50.958;10.994;2023-08-01T02:15:42;96892.88;;;15.83;100.00
29907;BME280;16776;50.958;10.994;2023-08-01T02:18:09;96896.41;;;15.82;100.00
29907;BME280;16776;50.958;10.994;2023-08-01T02:20:36;96892.13;;;15.81;100.00
29907;BME280;16776;50.958;10.994;2023-08-01T02:23:03;96892.38;;;15.78;100.00
29907;BME280;16776;50.958;10.994;2023-08-01T02:25:29;96894.25;;;15.76;100.00
29907;BME280;16776;50.958;10.994;2023-08-01T02:27:56;96901.34;;;15.74;100.00
29907;BME280;16776;50.958;10.994;2023-08-01T02:30:24;96910.78;;;15.75;100.00
29907;BME280;16776;50.958;10.994;2023-08-01T02:32:50;96908.53;;;15.70;100.00
29907;BME280;16776;50.958;10.994;2023-08-01T02:35:17;96901.00;;;15.67;100.00
29907;BME280;16776;50.958;10.994;2023-08-01T02:37:43;96901.00;;;15.67;100.00
29907;BME280;16776;50.958;10.994;2023-08-01T02:40:11;96918.31;;;15.67;100.00
29907;BME280;16776;50.958;10.994;2023-08-01T02:42:38;96923.63;;;15.65;100.00
29907;BME280;16776;50.958;10.994;2023-08-01T02:45:05;96925.38;;;15.65;100.00
29907;BME280;16776;50.958;10.994;2023-08-01T02:47:33;96920.09;;;15.66;100.00
29907;BME280;16776;50.958;10.994;2023-08-01T02:49:59;96912.53;;;15.63;100.00
29907;BME280;16776;50.958;10.994;2023-08-01T02:52:26;96921.13;;;15.64;100.00
29907;BME280;16776;50.958;10.994;2023-08-01T02:54:53;96921.13;;;15.64;100.00
29907;BME280;16776;50.958;10.994;2023-08-01T02:57:20;96918.44;;;15.65;100.00
29907;BME280;16776;50.958;10.994;2023-08-01T02:59:46;96904.63;;;15.65;100.00
29907;BME280;16776;50.958;10.994;2023-08-01T03:02:13;96899.34;;;15.66;100.00
29907;BME280;16776;50.958;10.994;2023-08-01T03:04:41;96899.09;;;15.69;100.00
29907;BME280;16776;50.958;10.994;2023-08-01T03:07:07;96900.03;;;15.68;100.00
29907;BME280;16776;50.958;10.994;2023-08-01T03:09:34;96892.22;;;15.68;100.00
29907;BME280;16776;50.958;10.994;2023-08-01T03:12:00;96889.53;;;15.70;100.00
29907;BME280;16776;50.958;10.994;2023-08-01T03:14:27;96889.53;;;15.70;100.00
29907;BME280;16776;50.958;10.994;2023-08-01T03:16:53;96887.66;;;15.72;100.00
29907;BME280;16776;50.958;10.994;2023-08-01T03:19:20;96894.38;;;15.74;100.00
29907;BME280;16776;50.958;10.994;2023-08-01T03:21:48;96894.97;;;15.78;100.00
29907;BME280;16776;50.958;10.994;2023-08-01T03:24:14;96894.25;;;15.76;100.00
29907;BME280;16776;50.958;10.994;2023-08-01T03:26:41;96889.06;;;15.76;100.00
29907;BME280;16776;50.958;10.994;2023-08-01T03:29:08;96889.78;;;15.78;100.00
29907;BME280;16776;50.958;10.994;2023-08-01T03:31:34;96888.03;;;15.78;100.00
29907;BME280;16776;50.958;10.994;2023-08-01T03:34:01;96880.94;;;15.80;100.00
29907;BME280;16776;50.958;10.994;2023-08-01T03:36:27;96874.69;;;15.83;100.00
29907;BME280;16776;50.958;10.994;2023-08-01T03:38:55;96874.47;;;15.86;100.00
29907;BME280;16776;50.958;10.994;2023-08-01T03:41:22;96875.53;;;15.84;100.00
29907;BME280;16776;50.958;10.994;2023-08-01T03:43:48;96877.19;;;15.85;100.00
29907;BME280;16776;50.958;10.994;2023-08-01T03:46:15;96875.41;;;15.85;100.00
29907;BME280;16776;50.958;10.994;2023-08-01T03:48:42;96867.63;;;15.85;100.00
29907;BME280;16776;50.958;10.994;2023-08-01T03:51:09;96864.09;;;15.86;100.00
29907;BME280;16776;50.958;10.994;2023-08-01T03:53:35;96863.13;;;15.87;100.00
29907;BME280;16776;50.958;10.994;2023-08-01T03:56:04;96856.06;;;15.89;100.00
29907;BME280;16776;50.958;10.994;2023-08-01T03:58:30;96850.75;;;15.79;100.00
29907;BME280;16776;50.958;10.994;2023-08-01T04:00:57;96854.53;;;15.87;100.00
29907;BME280;16776;50.958;10.994;2023-08-01T04:03:23;96850.16;;;15.87;100.00
29907;BME280;16776;50.958;10.994;2023-08-01T04:05:50;96844.84;;;15.89;100.00
29907;BME280;16776;50.958;10.994;2023-08-01T04:08:16;96834.56;;;15.87;100.00
29907;BME280;16776;50.958;10.994;2023-08-01T04:10:43;96835.41;;;15.88;100.00
29907;BME280;16776;50.958;10.994;2023-08-01T04:13:11;96826.56;;;15.90;100.00
29907;BME280;16776;50.958;10.994;2023-08-01T04:15:37;96826.66;;;15.89;100.00
29907;BME280;16776;50.958;10.994;2023-08-01T04:18:04;96825.72;;;15.90;100.00
29907;BME280;16776;50.958;10.994;2023-08-01T04:20:30;96824.06;;;15.89;100.00
29907;BME280;16776;50.958;10.994;2023-08-01T04:22:57;96823.13;;;15.90;100.00
29907;BME280;16776;50.958;10.994;2023-08-01T04:25:23;96823.97;;;15.90;100.00
29907;BME280;16776;50.958;10.994;2023-08-01T04:27:52;96824.78;;;15.91;100.00
29907;BME280;16776;50.958;10.994;2023-08-01T04:30:20;96812.19;;;15.86;100.00
29907;BME280;16776;50.958;10.994;2023-08-01T04:32:46;96821.38;;;15.90;100.00
29907;BME280;16776;50.958;10.994;2023-08-01T04:35:13;96817.00;;;15.91;100.00
29907;BME280;16776;50.958;10.994;2023-08-01T04:37:39;96817.00;;;15.91;100.00
29907;BME280;16776;50.958;10.994;2023-08-01T04:40:07;96819.50;;;15.92;100.00
29907;BME280;16776;50.958;10.994;2023-08-01T04:42:34;96816.06;;;15.92;100.00
29907;BME280;16776;50.958;10.994;2023-08-01T04:45:00;96819.00;;;15.98;100.00
29907;BME280;16776;50.958;10.994;2023-08-01T04:47:28;96812.97;;;16.09;100.00
29907;BME280;16776;50.958;10.994;2023-08-01T04:49:55;96815.03;;;16.16;100.00
29907;BME280;16776;50.958;10.994;2023-08-01T04:52:21;96826.31;;;16.27;100.00
29907;BME280;16776;50.958;10.994;2023-08-01T04:54:48;96825.50;;;16.37;100.00
29907;BME280;16776;50.958;10.994;2023-08-01T04:57:14;96823.59;;;16.50;100.00
29907;BME280;16776;50.958;10.994;2023-08-01T04:59:41;96828.75;;;16.62;100.00
29907;BME280;16776;50.958;10.994;2023-08-01T05:02:08;96815.59;;;16.74;100.00
29907;BME280;16776;50.958;10.994;2023-08-01T05:04:36;96828.31;;;16.88;100.00
29907;BME280;16776;50.958;10.994;2023-08-01T05:07:07;96830.44;;;16.94;100.00
29907;BME280;16776;50.958;10.994;2023-08-01T05:09:33;96837.06;;;16.98;100.00
29907;BME280;16776;50.958;10.994;2023-08-01T05:12:00;96834.44;;;16.98;100.00
29907;BME280;16776;50.958;10.994;2023-08-01T05:14:26;96841.53;;;16.96;100.00
29907;BME280;16776;50.958;10.994;2023-08-01T05:16:53;96844.50;;;16.92;100.00
29907;BME280;16776;50.958;10.994;2023-08-01T05:19:19;96838.97;;;16.85;100.00
29907;BME280;16776;50.958;10.994;2023-08-01T05:21:47;96841.09;;;16.80;100.00
29907;BME280;16776;50.958;10.994;2023-08-01T05:24:14;96842.91;;;16.69;100.00
29907;BME280;16776;50.958;10.994;2023-08-01T05:26:40;96847.06;;;16.60;100.00
29907;BME280;16776;50.958;10.994;2023-08-01T05:29:07;96829.59;;;16.51;100.00
29907;BME280;16776;50.958;10.994;2023-08-01T05:31:33;96821.81;;;16.40;100.00
29907;BME280;16776;50.958;10.994;2023-08-01T05:34:00;96813.94;;;16.30;100.00
29907;BME280;16776;50.958;10.994;2023-08-01T05:36:26;96818.19;;;16.20;100.00
29907;BME280;16776;50.958;10.994;2023-08-01T05:38:54;96815.97;;;16.15;100.00
29907;BME280;16776;50.958;10.994;2023-08-01T05:41:21;96810.75;;;16.04;100.00
29907;BME280;16776;50.958;10.994;2023-08-01T05:43:48;96796.69;;;15.96;100.00
29907;BME280;16776;50.958;10.994;2023-08-01T05:46:15;96775.84;;;15.86;100.00
29907;BME280;16776;50.958;10.994;2023-08-01T05:48:42;96785.25;;;15.76;100.00
29907;BME280;16776;50.958;10.994;2023-08-01T05:51:08;96764.38;;;15.66;100.00
29907;BME280;16776;50.958;10.994;2023-08-01T05:53:35;96762.38;;;15.59;100.00
29907;BME280;16776;50.958;10.994;2023-08-01T05:56:03;96754.94;;;15.54;100.00
29907;BME280;16776;50.958;10.994;2023-08-01T05:58:30;96767.06;;;15.42;100.00
29907;BME280;16776;50.958;10.994;2023-08-01T06:00:57;96778.72;;;15.37;100.00
29907;BME280;16776;50.958;10.994;2023-08-01T06:03:24;96791.19;;;15.32;100.00
29907;BME280;16776;50.958;10.994;2023-08-01T06:05:50;96798.50;;;15.27;100.00
29907;BME280;16776;50.958;10.994;2023-08-01T06:08:17;96814.28;;;15.24;100.00
29907;BME280;16776;50.958;10.994;2023-08-01T06:10:44;96810.47;;;15.17;100.00
29907;BME280;16776;50.958;10.994;2023-08-01T06:13:12;96823.81;;;15.23;100.00
29907;BME280;16776;50.958;10.994;2023-08-01T06:15:38;96839.63;;;15.20;100.00
29907;BME280;16776;50.958;10.994;2023-08-01T06:18:05;96817.09;;;15.21;100.00
29907;BME280;16776;50.958;10.994;2023-08-01T06:20:31;96823.13;;;15.21;100.00
29907;BME280;16776;50.958;10.994;2023-08-01T06:22:58;96823.72;;;15.25;100.00
29907;BME280;16776;50.958;10.994;2023-08-01T06:25:24;96818.31;;;15.28;100.00
29907;BME280;16776;50.958;10.994;2023-08-01T06:27:51;96807.63;;;15.32;100.00
29907;BME280;16776;50.958;10.994;2023-08-01T06:30:19;96804.47;;;15.40;100.00
29907;BME280;16776;50.958;10.994;2023-08-01T06:32:45;96793.00;;;15.42;100.00
29907;BME280;16776;50.958;10.994;2023-08-01T06:35:12;96787.59;;;15.46;100.00
29907;BME280;16776;50.958;10.994;2023-08-01T06:37:38;96784.66;;;15.50;100.00
29907;BME280;16776;50.958;10.994;2023-08-01T06:40:06;96794.69;;;15.55;100.00
29907;BME280;16776;50.958;10.994;2023-08-01T06:42:33;96781.47;;;15.58;100.00
29907;BME280;16776;50.958;10.994;2023-08-01T06:44:59;96765.69;;;15.61;100.00
29907;BME280;16776;50.958;10.994;2023-08-01T06:47:27;96746.22;;;15.66;100.00
29907;BME280;16776;50.958;10.994;2023-08-01T06:49:56;96741.03;;;15.66;100.00
29907;BME280;16776;50.958;10.994;2023-08-01T06:52:23;96738.19;;;15.69;100.00
29907;BME280;16776;50.958;10.994;2023-08-01T06:54:50;96756.81;;;15.74;100.00
29907;BME280;16776;50.958;10.994;2023-08-01T06:57:16;96755.75;;;15.77;100.00
29907;BME280;16776;50.958;10.994;2023-08-01T06:59:43;96737.22;;;15.81;100.00
29907;BME280;16776;50.958;10.994;2023-08-01T07:02:09;96738.78;;;15.84;100.00
29907;BME280;16776;50.958;10.994;2023-08-01T07:04:37;96739.25;;;15.89;100.00
29907;BME280;16776;50.958;10.994;2023-08-01T07:07:04;96735.69;;;15.90;100.00
29907;BME280;16776;50.958;10.994;2023-08-01T07:09:31;96735.44;;;15.93;100.00
29907;BME280;16776;50.958;10.994;2023-08-01T07:11:57;96715.38;;;15.95;100.00
29907;BME280;16776;50.958;10.994;2023-08-01T07:14:24;96708.19;;;15.99;100.00
29907;BME280;16776;50.958;10.994;2023-08-01T07:16:50;96733.09;;;16.01;100.00
29907;BME280;16776;50.958;10.994;2023-08-01T07:19:17;96729.44;;;16.04;100.00
29907;BME280;16776;50.958;10.994;2023-08-01T07:21:45;96736.72;;;16.10;100.00
29907;BME280;16776;50.958;10.994;2023-08-01T07:24:16;96740.28;;;16.09;100.00
29907;BME280;16776;50.958;10.994;2023-08-01T07:26:44;96741.81;;;16.11;100.00
29907;BME280;16776;50.958;10.994;2023-08-01T07:29:10;96740.03;;;16.12;100.00
29907;BME280;16776;50.958;10.994;2023-08-01T07:31:43;96751.59;;;16.19;100.00
29907;BME280;16776;50.958;10.994;2023-08-01T07:34:11;96759.66;;;16.16;100.00
29907;BME280;16776;50.958;10.994;2023-08-01T07:36:41;96763.91;;;16.17;100.00
29907;BME280;16776;50.958;10.994;2023-08-01T07:39:09;96774.88;;;16.20;100.00
29907;BME280;16776;50.958;10.994;2023-08-01T07:41:36;96769.66;;;16.20;100.00
29907;BME280;16776;50.958;10.994;2023-08-01T07:44:02;96769.66;;;16.20;100.00
29907;BME280;16776;50.958;10.994;2023-08-01T07:46:29;96783.38;;;16.23;100.00
29907;BME280;16776;50.958;10.994;2023-08-01T07:48:56;96779.84;;;16.24;100.00
29907;BME280;16776;50.958;10.994;2023-08-01T07:51:22;96788.31;;;16.26;100.00
29907;BME280;16776;50.958;10.994;2023-08-01T07:53:50;96786.31;;;16.29;100.00
29907;BME280;16776;50.958;10.994;2023-08-01T07:56:18;96788.78;;;16.31;100.00
29907;BME280;16776;50.958;10.994;2023-08-01T07:58:45;96799.28;;;16.29;100.00
29907;BME280;16776;50.958;10.994;2023-08-01T08:01:12;96793.28;;;16.29;100.00
29907;BME280;16776;50.958;10.994;2023-08-01T08:03:38;96790.56;;;16.30;100.00
29907;BME280;16776;50.958;10.994;2023-08-01T08:06:05;96774.97;;;16.30;100.00
29907;BME280;16776;50.958;10.994;2023-08-01T08:08:32;96775.09;;;16.29;100.00
29907;BME280;16776;50.958;10.994;2023-08-01T08:10:59;96790.22;;;16.24;100.00
29907;BME280;16776;50.958;10.994;2023-08-01T08:13:27;96798.22;;;16.32;100.00
29907;BME280;16776;50.958;10.994;2023-08-01T08:15:55;96795.63;;;16.32;100.00
29907;BME280;16776;50.958;10.994;2023-08-01T08:18:22;96782.06;;;16.28;100.00
29907;BME280;16776;50.958;10.994;2023-08-01T08:20:48;96779.84;;;16.24;100.00
29907;BME280;16776;50.958;10.994;2023-08-01T08:23:15;96772.84;;;16.13;100.00
29907;BME280;16776;50.958;10.994;2023-08-01T08:25:42;96772.72;;;16.14;100.00
29907;BME280;16776;50.958;10.994;2023-08-01T08:28:11;96778.28;;;16.10;100.00
29907;BME280;16776;50.958;10.994;2023-08-01T08:30:39;96782.75;;;16.08;100.00
29907;BME280;16776;50.958;10.994;2023-08-01T08:33:06;96791.28;;;15.99;100.00
29907;BME280;16776;50.958;10.994;2023-08-01T08:35:32;96761.41;;;15.93;100.00
29907;BME280;16776;50.958;10.994;2023-08-01T08:38:01;96774.63;;;15.90;100.00
29907;BME280;16776;50.958;10.994;2023-08-01T08:40:29;96782.19;;;15.82;100.00
29907;BME280;16776;50.958;10.994;2023-08-01T08:43:01;96793.50;;;15.81;100.00
29907;BME280;16776;50.958;10.994;2023-08-01T08:45:31;96802.47;;;15.77;100.00
29907;BME280;16776;50.958;10.994;2023-08-01T08:48:02;96811.22;;;15.76;100.00
29907;BME280;16776;50.958;10.994;2023-08-01T08:50:35;96809.81;;;15.72;100.00
29907;BME280;16776;50.958;10.994;2023-08-01T08:53:02;96819.56;;;15.68;100.00
29907;BME280;16776;50.958;10.994;2023-08-01T08:55:29;96823.13;;;15.67;100.00
29907;BME280;16776;50.958;10.994;2023-08-01T08:57:57;96829.94;;;15.68;100.00
29907;BME280;16776;50.958;10.994;2023-08-01T09:00:25;96829.13;;;15.68;100.00
29907;BME280;16776;50.958;10.994;2023-08-01T09:02:53;96835.03;;;15.70;100.00
29907;BME280;16776;50.958;10.994;2023-08-01T09:05:24;96844.00;;;15.77;100.00
29907;BME280;16776;50.958;10.994;2023-08-01T09:07:55;96844.84;;;15.77;100.00
29907;BME280;16776;50.958;10.994;2023-08-01T09:10:22;96845.56;;;15.79;100.00
29907;BME280;16776;50.958;10.994;2023-08-01T09:12:49;96846.03;;;15.85;100.00
29907;BME280;16776;50.958;10.994;2023-08-01T09:15:17;96855.13;;;15.90;100.00
29907;BME280;16776;50.958;10.994;2023-08-01T09:17:52;96858.53;;;16.02;100.00
29907;BME280;16776;50.958;10.994;2023-08-01T09:20:24;96868.09;;;16.01;100.00
29907;BME280;16776;50.958;10.994;2023-08-01T09:22:50;96865.16;;;16.06;100.00
29907;BME280;16776;50.958;10.994;2023-08-01T09:25:17;96863.88;;;16.11;100.00
29907;BME280;16776;50.958;10.994;2023-08-01T09:27:44;96866.13;;;16.16;100.00
29907;BME280;16776;50.958;10.994;2023-08-01T09:30:12;96868.97;;;16.24;100.00
29907;BME280;16776;50.958;10.994;2023-08-01T09:32:51;96875.69;;;16.38;100.00
29907;BME280;16776;50.958;10.994;2023-08-01T09:35:17;96880.91;;;16.38;100.00
29907;BME280;16776;50.958;10.994;2023-08-01T09:37:45;96881.69;;;16.49;100.00
29907;BME280;16776;50.958;10.994;2023-08-01T09:40:13;96869.53;;;16.50;100.00
29907;BME280;16776;50.958;10.994;2023-08-01T09:42:41;96881.78;;;16.59;100.00
29907;BME280;16776;50.958;10.994;2023-08-01T09:45:12;96884.50;;;16.69;100.00
29907;BME280;16776;50.958;10.994;2023-08-01T09:47:40;96888.88;;;16.68;100.00
29907;BME280;16776;50.958;10.994;2023-08-01T09:50:09;96897.84;;;16.75;100.00
29907;BME280;16776;50.958;10.994;2023-08-01T09:52:35;96893.31;;;16.77;100.00
29907;BME280;16776;50.958;10.994;2023-08-01T09:55:04;96906.81;;;16.82;100.00
29907;BME280;16776;50.958;10.994;2023-08-01T09:57:31;96907.88;;;16.80;100.00
29907;BME280;16776;50.958;10.994;2023-08-01T09:59:59;96899.13;;;16.81;100.00
29907;BME280;16776;50.958;10.994;2023-08-01T10:02:26;96895.69;;;16.80;100.00
29907;BME280;16776;50.958;10.994;2023-08-01T10:04:58;96881.41;;;16.75;100.00
29907;BME280;16776;50.958;10.994;2023-08-01T10:07:29;96884.09;;;16.84;100.00
29907;BME280;16776;50.958;10.994;2023-08-01T10:09:58;96888.25;;;16.87;100.00
29907;BME280;16776;50.958;10.994;2023-08-01T10:12:27;96892.00;;;16.94;100.00
29907;BME280;16776;50.958;10.994;2023-08-01T10:14:54;96884.56;;;17.01;100.00
29907;BME280;16776;50.958;10.994;2023-08-01T10:17:23;96887.94;;;17.12;100.00
29907;BME280;16776;50.958;10.994;2023-08-01T10:19:50;96887.91;;;17.23;100.00
29907;BME280;16776;50.958;10.994;2023-08-01T10:22:17;96887.28;;;17.31;100.00
29907;BME280;16776;50.958;10.994;2023-08-01T10:24:44;96900.06;;;17.55;100.00
29907;BME280;16776;50.958;10.994;2023-08-01T10:27:12;96905.53;;;17.72;100.00
29907;BME280;16776;50.958;10.994;2023-08-01T10:29:41;96900.84;;;17.87;100.00
29907;BME280;16776;50.958;10.994;2023-08-01T10:32:08;96916.59;;;18.06;100.00
29907;BME280;16776;50.958;10.994;2023-08-01T10:34:34;96917.91;;;18.22;100.00
29907;BME280;16776;50.958;10.994;2023-08-01T10:37:01;96910.00;;;18.33;100.00
29907;BME280;16776;50.958;10.994;2023-08-01T10:39:28;96924.69;;;18.43;100.00
29907;BME280;16776;50.958;10.994;2023-08-01T10:41:59;96915.88;;;18.55;100.00
29907;BME280;16776;50.958;10.994;2023-08-01T10:44:26;96910.69;;;18.55;100.00
29907;BME280;16776;50.958;10.994;2023-08-01T10:46:56;96913.72;;;18.70;100.00
29907;BME280;16776;50.958;10.994;2023-08-01T10:49:34;96913.22;;;18.86;100.00
29907;BME280;16776;50.958;10.994;2023-08-01T10:52:01;96918.97;;;18.89;100.00
29907;BME280;16776;50.958;10.994;2023-08-01T10:54:28;96913.38;;;19.04;100.00
29907;BME280;16776;50.958;10.994;2023-08-01T10:56:56;96904.91;;;19.21;100.00
29907;BME280;16776;50.958;10.994;2023-08-01T10:59:23;96904.63;;;19.33;100.00
29907;BME280;16776;50.958;10.994;2023-08-01T11:01:51;96901.91;;;19.45;100.00
29907;BME280;16776;50.958;10.994;2023-08-01T11:04:21;96899.13;;;19.56;100.00
29907;BME280;16776;50.958;10.994;2023-08-01T11:06:49;96899.28;;;19.54;100.00
29907;BME280;16776;50.958;10.994;2023-08-01T11:09:17;96899.13;;;19.56;100.00
29907;BME280;16776;50.958;10.994;2023-08-01T11:11:45;96904.38;;;19.56;100.00
29907;BME280;16776;50.958;10.994;2023-08-01T11:14:12;96894.88;;;19.55;100.00
29907;BME280;16776;50.958;10.994;2023-08-01T11:16:39;96897.50;;;19.55;100.00
29907;BME280;16776;50.958;10.994;2023-08-01T11:19:06;96879.91;;;19.47;100.00
29907;BME280;16776;50.958;10.994;2023-08-01T11:21:34;96890.06;;;19.60;100.00
29907;BME280;16776;50.958;10.994;2023-08-01T11:24:06;96887.56;;;19.68;100.00
29907;BME280;16776;50.958;10.994;2023-08-01T11:26:33;96885.22;;;19.65;100.00
29907;BME280;16776;50.958;10.994;2023-08-01T11:29:01;96868.59;;;19.66;100.00
29907;BME280;16776;50.958;10.994;2023-08-01T11:31:28;96889.06;;;19.80;100.00
29907;BME280;16776;50.958;10.994;2023-08-01T11:33:56;96885.66;;;19.89;100.00
29907;BME280;16776;50.958;10.994;2023-08-01T11:36:25;96890.69;;;20.00;100.00
29907;BME280;16776;50.958;10.994;2023-08-01T11:38:55;96884.59;;;20.09;100.00
29907;BME280;16776;50.958;10.994;2023-08-01T11:41:23;96892.69;;;20.16;100.00
29907;BME280;16776;50.958;10.994;2023-08-01T11:43:50;96889.09;;;20.27;100.00
29907;BME280;16776;50.958;10.994;2023-08-01T11:46:17;96887.94;;;20.39;100.00
29907;BME280;16776;50.958;10.994;2023-08-01T11:48:44;96884.75;;;20.45;100.00
29907;BME280;16776;50.958;10.994;2023-08-01T11:51:12;96884.97;;;20.61;100.00
29907;BME280;16776;50.958;10.994;2023-08-01T11:53:39;96891.66;;;20.73;100.00
29907;BME280;16776;50.958;10.994;2023-08-01T11:56:07;96901.78;;;20.86;100.00
29907;BME280;16776;50.958;10.994;2023-08-01T11:58:36;96898.72;;;20.90;100.00
29907;BME280;16776;50.958;10.994;2023-08-01T12:01:04;96902.69;;;20.94;100.00
29907;BME280;16776;50.958;10.994;2023-08-01T12:03:31;96898.94;;;20.97;100.00
29907;BME280;16776;50.958;10.994;2023-08-01T12:06:03;96898.03;;;21.06;100.00
29907;BME280;16776;50.958;10.994;2023-08-01T12:08:32;96897.53;;;21.03;100.00
29907;BME280;16776;50.958;10.994;2023-08-01T12:10:59;96900.84;;;21.05;100.00
29907;BME280;16776;50.958;10.994;2023-08-01T12:13:27;96911.97;;;21.07;100.00
29907;BME280;16776;50.958;10.994;2023-08-01T12:15:55;96910.75;;;21.01;100.00
29907;BME280;16776;50.958;10.994;2023-08-01T12:18:23;96928.84;;;20.94;100.00
29907;BME280;16776;50.958;10.994;2023-08-01T12:20:49;96925.34;;;20.86;100.00
29907;BME280;16776;50.958;10.994;2023-08-01T12:23:16;96938.44;;;20.76;100.00
29907;BME280;16776;50.958;10.994;2023-08-01T12:25:42;96935.22;;;20.65;100.00
29907;BME280;16776;50.958;10.994;2023-08-01T12:28:09;96932.06;;;20.51;100.00
29907;BME280;16776;50.958;10.994;2023-08-01T12:30:39;96939.66;;;20.45;100.00
29907;BME280;16776;50.958;10.994;2023-08-01T12:33:05;96933.78;;;20.33;100.00
29907;BME280;16776;50.958;10.994;2023-08-01T12:35:32;96933.94;;;20.32;100.00
29907;BME280;16776;50.958;10.994;2023-08-01T12:38:01;96938.72;;;20.36;100.00
29907;BME280;16776;50.958;10.994;2023-08-01T12:40:27;96949.28;;;20.44;100.00